createdAt,value
2018-05-16T00:00:31.159Z,74.87
2018-05-16T00:01:31.268Z,74.83
2018-05-16T00:02:31.033Z,74.93
2018-05-16T00:03:30.936Z,75.12
2018-05-16T00:04:30.843Z,75.15
2018-05-16T00:05:30.900Z,75.15
2018-05-16T00:06:30.707Z,74.77
2018-05-16T00:07:30.742Z,75.06
2018-05-16T00:08:30.660Z,75.25
2018-05-16T00:09:30.512Z,74.96
2018-05-16T00:10:30.382Z,75.25
2018-05-16T00:11:30.420Z,75.25
2018-05-16T00:12:30.242Z,75.82
2018-05-16T00:13:30.239Z,76.17
2018-05-16T00:14:30.067Z,75.60
2018-05-16T00:15:30.044Z,75.50
2018-05-16T00:16:29.910Z,76.07
2018-05-16T00:17:29.877Z,76.46
2018-05-16T00:18:29.755Z,76.37
2018-05-16T00:19:29.762Z,76.56
2018-05-16T00:20:29.592Z,76.75
2018-05-16T00:23:11.474Z,76.65
2018-05-16T00:24:11.466Z,76.84
2018-05-16T00:25:11.425Z,76.56
2018-05-16T00:26:11.272Z,77.33
2018-05-16T00:27:11.140Z,77.04
2018-05-16T00:28:11.112Z,76.94
2018-05-16T00:29:10.977Z,77.13
2018-05-16T00:30:10.985Z,77.04
2018-05-16T00:31:10.831Z,77.23
2018-05-16T00:32:10.794Z,77.13
2018-05-16T00:33:10.686Z,77.13
2018-05-16T00:34:10.709Z,77.51
2018-05-16T00:35:10.530Z,77.61
2018-05-16T00:36:10.506Z,77.61
2018-05-16T00:37:10.368Z,77.33
2018-05-16T00:38:10.359Z,77.80
2018-05-16T00:39:10.202Z,78.00
2018-05-16T00:40:10.234Z,77.71
2018-05-16T00:41:10.062Z,77.71
2018-05-16T00:42:10.045Z,77.51
2018-05-16T00:43:09.945Z,77.80
2018-05-16T00:44:09.852Z,78.19
2018-05-16T00:45:09.730Z,78.09
2018-05-16T00:46:09.776Z,77.61
2018-05-16T00:47:09.583Z,78.00
2018-05-16T00:48:09.574Z,77.80
2018-05-16T00:49:09.453Z,78.00
2018-05-16T00:50:09.381Z,77.80
2018-05-16T00:51:09.274Z,77.80
2018-05-16T00:52:09.195Z,77.80
2018-05-16T00:53:09.111Z,78.19
2018-05-16T00:54:09.094Z,78.57
2018-05-16T00:55:08.975Z,78.67
2018-05-16T00:56:08.914Z,77.90
2018-05-16T00:57:08.799Z,78.57
2018-05-16T00:58:08.865Z,78.47
2018-05-16T00:59:08.639Z,78.28
2018-05-16T01:00:08.633Z,78.57
2018-05-16T01:01:08.503Z,78.38
2018-05-16T01:02:08.431Z,78.57
2018-05-16T01:03:08.331Z,78.28
2018-05-16T01:04:08.428Z,78.38
2018-05-16T01:05:08.176Z,79.34
2018-05-16T01:06:08.160Z,78.57
2018-05-16T01:07:08.024Z,78.86
2018-05-16T01:08:08.067Z,78.47
2018-05-16T01:09:07.885Z,78.57
2018-05-16T01:10:07.898Z,78.47
2018-05-16T01:11:07.818Z,78.00
2018-05-16T01:12:07.692Z,78.67
2018-05-16T01:13:07.558Z,78.57
2018-05-16T01:14:07.591Z,78.38
2018-05-16T01:15:07.395Z,78.57
2018-05-16T01:16:07.444Z,78.47
2018-05-16T01:17:07.227Z,79.05
2018-05-16T01:18:07.208Z,78.67
2018-05-16T01:19:07.092Z,78.57
2018-05-16T01:20:07.130Z,78.38
2018-05-16T01:21:06.951Z,78.67
2018-05-16T01:22:06.972Z,77.90
2018-05-16T01:23:06.767Z,77.80
2018-05-16T01:24:06.944Z,78.09
2018-05-16T01:25:06.617Z,77.80
2018-05-16T01:26:06.651Z,78.38
2018-05-16T01:27:06.579Z,78.77
2018-05-16T01:28:06.457Z,78.86
2018-05-16T01:29:06.299Z,78.57
2018-05-16T01:30:06.267Z,78.38
2018-05-16T01:31:06.161Z,77.80
2018-05-16T01:32:06.231Z,77.71
2018-05-16T01:33:05.984Z,78.09
2018-05-16T01:34:05.985Z,78.09
2018-05-16T01:35:05.831Z,77.56
2018-05-16T01:36:05.790Z,77.17
2018-05-16T01:37:05.834Z,77.08
2018-05-16T01:38:05.703Z,76.21
2018-05-16T01:39:05.515Z,76.79
2018-05-16T01:40:05.650Z,77.08
2018-05-16T01:41:05.358Z,76.98
2018-05-16T01:42:05.352Z,77.08
2018-05-16T01:43:05.253Z,76.50
2018-05-16T01:44:05.237Z,76.31
2018-05-16T01:45:05.041Z,76.40
2018-05-16T01:46:05.043Z,75.82
2018-05-16T01:47:04.885Z,75.54
2018-05-16T01:48:04.854Z,75.92
2018-05-16T01:49:04.752Z,76.59
2018-05-16T01:50:04.759Z,76.69
2018-05-16T01:51:04.585Z,77.84
2018-05-16T01:52:04.563Z,77.84
2018-05-16T01:53:04.426Z,79.09
2018-05-16T01:54:04.417Z,79.38
2018-05-16T01:55:04.268Z,80.24
2018-05-16T01:56:04.291Z,80.24
2018-05-16T01:57:04.128Z,80.53
2018-05-16T01:58:04.097Z,80.87
2018-05-16T01:59:03.983Z,80.68
2018-05-16T02:00:03.967Z,80.68
2018-05-16T02:01:03.847Z,80.87
2018-05-16T02:02:03.817Z,81.35
2018-05-16T02:03:03.839Z,81.74
2018-05-16T02:04:03.666Z,81.74
2018-05-16T02:05:03.513Z,81.45
2018-05-16T02:06:03.606Z,82.51
2018-05-16T02:07:03.330Z,82.31
2018-05-16T02:08:03.337Z,82.21
2018-05-16T02:09:03.178Z,81.93
2018-05-16T02:10:03.150Z,82.12
2018-05-16T02:11:03.045Z,81.84
2018-05-16T02:12:02.949Z,82.12
2018-05-16T02:13:02.860Z,82.12
2018-05-16T02:14:02.864Z,82.21
2018-05-16T02:15:02.700Z,81.93
2018-05-16T02:16:02.718Z,82.60
2018-05-16T02:17:02.539Z,82.70
2018-05-16T02:18:02.610Z,82.70
2018-05-16T02:19:02.386Z,83.18
2018-05-16T02:20:02.395Z,82.94
2018-05-16T02:21:02.257Z,83.81
2018-05-16T02:22:02.165Z,83.14
2018-05-16T02:23:02.085Z,83.14
2018-05-16T02:24:02.116Z,83.61
2018-05-16T02:25:01.921Z,83.61
2018-05-16T02:26:01.871Z,83.52
2018-05-16T02:27:01.765Z,84.19
2018-05-16T02:28:01.729Z,84.28
2018-05-16T02:29:01.612Z,84.38
2018-05-16T02:30:01.714Z,84.38
2018-05-16T02:31:01.499Z,84.86
2018-05-16T02:32:01.468Z,84.91
2018-05-16T02:33:01.291Z,85.05
2018-05-16T02:34:01.262Z,85.39
2018-05-16T02:35:01.136Z,86.40
2018-05-16T02:36:01.323Z,86.35
2018-05-16T02:37:00.999Z,86.21
2018-05-16T02:38:00.975Z,86.45
2018-05-16T02:39:00.823Z,86.40
2018-05-16T02:40:00.786Z,86.74
2018-05-16T02:41:00.667Z,86.93
2018-05-16T02:42:00.769Z,87.02
2018-05-16T02:43:00.521Z,87.50
2018-05-16T02:44:00.512Z,87.60
2018-05-16T02:45:00.365Z,87.50
2018-05-16T02:46:00.351Z,87.50
2018-05-16T02:47:00.213Z,87.64
2018-05-16T02:48:00.267Z,87.55
2018-05-16T02:49:00.034Z,87.31
2018-05-16T02:50:00.042Z,87.55
2018-05-16T02:50:59.886Z,87.79
2018-05-16T02:51:59.876Z,88.17
2018-05-16T02:52:59.720Z,88.65
2018-05-16T02:53:59.760Z,88.08
2018-05-16T02:54:59.567Z,87.98
2018-05-16T02:55:59.571Z,88.56
2018-05-16T02:56:59.405Z,88.22
2018-05-16T02:57:59.407Z,88.02
2018-05-16T02:58:59.262Z,88.12
2018-05-16T02:59:59.295Z,88.51
2018-05-16T03:00:59.103Z,87.98
2018-05-16T03:01:59.093Z,88.65
2018-05-16T03:02:58.958Z,88.56
2018-05-16T03:03:58.907Z,88.56
2018-05-16T03:04:58.788Z,88.17
2018-05-16T03:05:58.816Z,88.08
2018-05-16T03:06:58.624Z,88.75
2018-05-16T03:07:58.653Z,88.84
2018-05-16T03:08:58.467Z,87.88
2018-05-16T03:09:58.470Z,89.32
2018-05-16T03:10:58.318Z,88.94
2018-05-16T03:11:58.349Z,89.23
2018-05-16T03:12:58.160Z,89.13
2018-05-16T03:13:58.148Z,88.84
2018-05-16T03:14:58.041Z,88.94
2018-05-16T03:15:57.949Z,89.04
2018-05-16T03:16:57.838Z,89.04
2018-05-16T03:17:57.973Z,88.75
2018-05-16T03:18:57.683Z,89.51
2018-05-16T03:19:57.642Z,88.94
2018-05-16T03:20:57.546Z,89.80
2018-05-16T03:21:57.479Z,89.71
2018-05-16T03:22:57.371Z,89.37
2018-05-16T03:23:57.325Z,88.79
2018-05-16T03:24:57.206Z,89.13
2018-05-16T03:25:57.206Z,89.61
2018-05-16T03:26:57.076Z,89.80
2018-05-16T03:27:57.015Z,89.51
2018-05-16T03:28:56.922Z,90.38
2018-05-16T03:29:56.917Z,90.57
2018-05-16T03:30:56.763Z,90.76
2018-05-16T03:31:56.725Z,90.86
2018-05-16T03:32:56.581Z,91.43
2018-05-16T03:33:56.542Z,90.76
2018-05-16T03:34:56.459Z,91.53
2018-05-16T03:35:56.448Z,90.57
2018-05-16T03:36:56.266Z,90.86
2018-05-16T03:37:56.239Z,90.76
2018-05-16T03:38:56.119Z,91.34
2018-05-16T03:39:56.098Z,91.05
2018-05-16T03:40:56.124Z,91.53
2018-05-16T03:41:55.978Z,91.34
2018-05-16T03:42:55.798Z,91.49
2018-05-16T03:43:55.788Z,92.44
2018-05-16T03:44:55.681Z,92.35
2018-05-16T03:45:55.591Z,92.25
2018-05-16T03:46:55.492Z,92.63
2018-05-16T03:47:55.518Z,93.11
2018-05-16T03:48:55.328Z,93.40
2018-05-16T03:49:55.351Z,93.11
2018-05-16T03:50:55.305Z,93.59
2018-05-16T03:51:55.323Z,93.78
2018-05-16T03:52:55.024Z,93.98
2018-05-16T03:53:55.254Z,93.98
2018-05-16T03:54:54.877Z,94.17
2018-05-16T03:55:54.869Z,93.98
2018-05-16T03:56:54.717Z,94.07
2018-05-16T03:57:54.655Z,94.55
2018-05-16T03:58:54.555Z,94.55
2018-05-16T03:59:54.565Z,94.45
2018-05-16T04:00:54.409Z,94.64
2018-05-16T04:01:54.418Z,95.22
2018-05-16T04:02:54.241Z,95.60
2018-05-16T04:03:54.167Z,95.51
2018-05-16T04:04:54.087Z,95.60
2018-05-16T04:05:54.132Z,95.03
2018-05-16T04:06:53.951Z,94.93
2018-05-16T04:07:53.896Z,95.12
2018-05-16T04:08:53.769Z,95.41
2018-05-16T04:09:53.807Z,95.03
2018-05-16T04:10:53.617Z,94.93
2018-05-16T04:11:53.652Z,95.41
2018-05-16T04:12:53.449Z,95.41
2018-05-16T04:13:53.535Z,96.08
2018-05-16T04:14:53.293Z,95.98
2018-05-16T04:15:53.235Z,95.89
2018-05-16T04:16:53.228Z,95.98
2018-05-16T04:17:53.146Z,96.08
2018-05-16T04:18:52.981Z,95.41
2018-05-16T04:19:52.962Z,95.98
2018-05-16T04:20:52.822Z,96.18
2018-05-16T04:21:52.788Z,96.18
2018-05-16T04:22:52.668Z,96.61
2018-05-16T04:23:52.676Z,96.66
2018-05-16T04:24:52.508Z,96.66
2018-05-16T04:25:52.476Z,95.60
2018-05-16T04:26:52.378Z,96.18
2018-05-16T04:27:52.405Z,96.27
2018-05-16T04:28:52.275Z,96.08
2018-05-16T04:29:52.307Z,96.75
2018-05-16T04:30:52.039Z,96.66
2018-05-16T04:31:52.020Z,97.14
2018-05-16T04:32:51.908Z,97.23
2018-05-16T04:33:51.934Z,97.85
2018-05-16T04:34:51.726Z,97.28
2018-05-16T04:35:51.731Z,97.04
2018-05-16T04:36:51.571Z,97.04
2018-05-16T04:37:51.566Z,97.23
2018-05-16T04:38:51.408Z,97.23
2018-05-16T04:39:51.446Z,97.23
2018-05-16T04:40:51.263Z,96.84
2018-05-16T04:41:51.348Z,97.04
2018-05-16T04:42:51.101Z,96.37
2018-05-16T04:43:51.102Z,97.61
2018-05-16T04:44:50.941Z,97.14
2018-05-16T04:45:50.972Z,97.33
2018-05-16T04:46:50.814Z,97.52
2018-05-16T04:47:50.782Z,97.14
2018-05-16T04:48:50.662Z,97.04
2018-05-16T04:49:50.599Z,97.61
2018-05-16T04:50:50.461Z,97.90
2018-05-16T04:51:50.497Z,98.57
2018-05-16T04:52:50.350Z,98.19
2018-05-16T04:53:50.351Z,98.19
2018-05-16T04:54:50.158Z,97.90
2018-05-16T04:55:50.126Z,97.90
2018-05-16T04:56:49.997Z,97.14
2018-05-16T04:57:50.037Z,97.42
2018-05-16T04:58:49.859Z,97.61
2018-05-16T04:59:49.855Z,98.38
2018-05-16T05:00:49.746Z,98.28
2018-05-16T05:01:49.643Z,97.90
2018-05-16T05:02:49.534Z,97.80
2018-05-16T05:03:49.497Z,97.61
2018-05-16T05:04:49.371Z,99.99
2018-05-16T05:05:49.390Z,99.99
2018-05-16T05:06:49.211Z,98.57
2018-05-16T05:07:49.186Z,99.19
2018-05-16T05:08:49.140Z,98.38
2018-05-16T05:09:49.085Z,97.66
2018-05-16T05:10:48.895Z,97.66
2018-05-16T05:11:48.895Z,98.33
2018-05-16T05:12:48.737Z,97.76
2018-05-16T05:15:31.067Z,98.24
2018-05-16T05:18:13.038Z,96.94
2018-05-16T05:19:33.941Z,95.03
2018-05-16T05:20:12.988Z,95.03
2018-05-16T05:21:12.919Z,94.54
2018-05-16T05:22:12.736Z,95.31
2018-05-16T05:23:12.745Z,95.31
2018-05-16T05:24:12.595Z,96.08
2018-05-16T05:25:12.572Z,96.66
2018-05-16T05:26:12.403Z,96.47
2018-05-16T05:28:54.535Z,94.84
2018-05-16T05:29:54.597Z,94.07
2018-05-16T05:30:54.376Z,93.88
2018-05-16T05:33:36.530Z,93.11
2018-05-16T05:36:01.613Z,92.82
2018-05-16T05:37:01.462Z,92.96
2018-05-16T05:38:01.394Z,92.63
2018-05-16T05:39:01.442Z,92.63
2018-05-16T05:40:02.252Z,93.21
2018-05-16T05:46:34.702Z,91.33
2018-05-16T05:47:34.661Z,91.14
2018-05-16T05:48:34.548Z,90.85
2018-05-16T05:49:34.435Z,90.14
2018-05-16T05:50:34.496Z,90.85
2018-05-16T05:51:34.275Z,90.56
2018-05-16T05:52:34.210Z,90.28
2018-05-16T05:53:34.193Z,90.85
2018-05-16T05:56:16.066Z,91.24
2018-05-16T06:01:58.331Z,89.79
2018-05-16T06:02:58.370Z,89.51
2018-05-16T06:03:58.165Z,89.41
2018-05-16T06:04:58.095Z,89.03
2018-05-16T06:05:58.221Z,88.26
2018-05-16T06:06:57.943Z,88.45
2018-05-16T06:07:57.850Z,88.55
2018-05-16T06:08:57.775Z,87.78
2018-05-16T06:09:57.686Z,87.82
2018-05-16T06:10:57.645Z,87.63
2018-05-16T06:11:57.554Z,86.72
2018-05-16T06:12:57.475Z,83.34
2018-05-16T06:13:57.395Z,79.58
2018-05-16T06:14:57.305Z,76.09
2018-05-16T06:15:57.238Z,73.05
2018-05-16T06:16:58.175Z,70.90
2018-05-16T06:17:57.084Z,68.84
2018-05-16T06:20:39.049Z,62.85
2018-05-16T06:21:39.015Z,62.08
2018-05-16T06:22:38.903Z,62.56
2018-05-16T06:23:38.833Z,62.47
2018-05-16T06:24:38.739Z,61.53
2018-05-16T06:50:21.094Z,55.30
2018-05-16T06:51:20.991Z,55.98
2018-05-16T06:52:20.931Z,56.26
2018-05-16T06:55:42.699Z,56.75
2018-05-16T06:56:42.310Z,54.45
2018-05-16T06:57:42.286Z,55.68
2018-05-16T06:58:42.167Z,55.13
2018-05-16T06:59:42.108Z,54.84
2018-05-16T07:00:42.036Z,54.19
2018-05-16T07:01:41.985Z,53.31
2018-05-16T07:02:41.895Z,53.97
2018-05-16T07:03:41.978Z,54.43
2018-05-16T07:04:41.739Z,55.49
2018-05-16T07:05:41.661Z,54.81
2018-05-16T07:06:41.588Z,54.71
2018-05-16T07:07:41.529Z,54.35
2018-05-16T07:08:41.472Z,53.49
2018-05-16T07:09:41.387Z,53.19
2018-05-16T07:10:41.331Z,53.75
2018-05-16T07:11:41.246Z,54.55
2018-05-16T07:12:41.175Z,53.99
2018-05-16T07:13:42.170Z,53.41
2018-05-16T07:14:41.075Z,52.73
2018-05-16T07:15:40.957Z,53.36
2018-05-16T07:16:40.892Z,55.60
2018-05-16T07:17:40.825Z,55.76
2018-05-16T07:18:40.763Z,55.78
2018-05-16T07:19:40.693Z,54.88
2018-05-16T07:20:40.646Z,54.71
2018-05-16T07:21:40.533Z,55.32
2018-05-16T07:22:40.467Z,54.86
2018-05-16T07:23:40.493Z,54.45
2018-05-16T07:24:40.335Z,53.77
2018-05-16T07:27:22.573Z,54.45
2018-05-16T07:28:22.503Z,54.62
2018-05-16T07:29:22.442Z,55.00
2018-05-16T07:30:22.370Z,55.30
2018-05-16T07:31:22.291Z,54.86
2018-05-16T07:32:22.247Z,54.02
2018-05-16T07:33:22.163Z,55.18
2018-05-16T07:34:22.132Z,54.35
2018-05-16T07:35:22.024Z,53.73
2018-05-16T07:36:21.954Z,53.47
2018-05-16T07:37:21.862Z,51.14
2018-05-16T07:38:21.808Z,52.40
2018-05-16T07:39:21.797Z,52.11
2018-05-16T07:40:21.667Z,52.69
2018-05-16T07:41:21.614Z,51.91
2018-05-16T07:44:03.632Z,52.13
2018-05-16T07:45:03.530Z,52.23
2018-05-16T07:46:03.472Z,51.18
2018-05-16T07:47:03.455Z,50.12
2018-05-16T07:48:03.346Z,49.51
2018-05-16T07:49:03.348Z,50.51
2018-05-16T07:50:03.171Z,52.42
2018-05-16T07:51:03.225Z,51.33
2018-05-16T07:52:03.120Z,51.16
2018-05-16T07:53:02.971Z,50.87
2018-05-16T07:54:02.892Z,51.50
2018-05-16T07:55:02.826Z,52.56
2018-05-16T07:56:03.208Z,52.34
2018-05-16T07:57:02.713Z,53.70
2018-05-16T07:58:02.614Z,54.26
2018-05-16T07:59:02.549Z,54.23
2018-05-16T08:00:02.484Z,53.12
2018-05-16T08:02:44.615Z,52.66
2018-05-16T08:03:44.530Z,53.05
2018-05-16T08:04:44.554Z,52.13
2018-05-16T08:05:44.410Z,50.26
2018-05-16T08:06:44.333Z,50.09
2018-05-16T08:07:44.275Z,48.75
2018-05-16T08:08:44.176Z,48.93
2018-05-16T08:11:26.267Z,51.06
2018-05-16T08:12:26.046Z,49.41
2018-05-16T08:13:25.955Z,50.24
2018-05-16T08:14:25.990Z,51.93
2018-05-16T08:15:25.820Z,53.31
2018-05-16T08:16:25.772Z,52.54
2018-05-16T08:17:25.882Z,51.47
2018-05-16T08:20:07.592Z,52.47
2018-05-16T08:21:07.536Z,52.25
2018-05-16T08:22:07.465Z,52.73
2018-05-16T08:23:07.402Z,52.25
2018-05-16T08:24:07.337Z,54.49
2018-05-16T08:25:07.257Z,55.07
2018-05-16T08:26:07.189Z,55.20
2018-05-16T08:27:07.187Z,56.10
2018-05-16T08:28:07.078Z,54.91
2018-05-16T08:29:06.981Z,53.65
2018-05-16T08:30:06.933Z,54.81
2018-05-16T08:31:06.930Z,54.23
2018-05-16T08:32:06.785Z,55.07
2018-05-16T08:33:07.720Z,54.74
2018-05-16T08:34:06.626Z,53.87
2018-05-16T08:35:06.556Z,54.81
2018-05-16T08:36:06.495Z,55.53
2018-05-16T08:37:06.425Z,57.92
2018-05-16T08:38:06.374Z,58.64
2018-05-16T08:39:06.279Z,60.09
2018-05-16T08:40:06.222Z,59.22
2018-05-16T08:41:06.149Z,58.73
2018-05-16T08:42:06.075Z,59.12
2018-05-16T08:43:06.041Z,59.41
2018-05-16T08:44:05.988Z,58.64
2018-05-16T08:45:05.868Z,58.28
2018-05-16T08:46:05.791Z,58.28
2018-05-16T08:47:05.721Z,58.09
2018-05-16T08:48:05.680Z,56.93
2018-05-16T08:49:05.580Z,57.77
2018-05-16T08:50:05.637Z,58.61
2018-05-16T08:51:05.434Z,59.58
2018-05-16T08:52:05.369Z,59.64
2018-05-16T08:53:06.377Z,60.54
2018-05-16T08:54:05.241Z,59.77
2018-05-16T08:56:47.145Z,61.19
2018-05-16T08:59:29.149Z,60.80
2018-05-16T09:02:11.129Z,61.31
2018-05-16T09:03:12.087Z,60.73
2018-05-16T09:04:10.995Z,61.02
2018-05-16T09:06:53.120Z,61.60
2018-05-16T09:07:53.107Z,62.37
2018-05-16T09:08:53.273Z,61.73
2018-05-16T09:09:53.181Z,60.24
2018-05-16T09:10:52.978Z,59.44
2018-05-16T09:11:52.886Z,58.64
2018-05-16T09:12:52.675Z,59.60
2018-05-16T09:13:54.617Z,60.11
2018-05-16T09:14:52.526Z,59.25
2018-05-16T09:15:53.713Z,59.89
2018-05-16T09:16:52.370Z,59.89
2018-05-16T09:17:52.324Z,59.70
2018-05-16T09:18:52.283Z,60.67
2018-05-16T09:19:52.166Z,60.76
2018-05-16T09:20:52.093Z,60.76
2018-05-16T09:21:52.009Z,59.99
2018-05-16T09:22:51.955Z,60.44
2018-05-16T09:23:51.892Z,60.93
2018-05-16T09:24:51.828Z,61.51
2018-05-16T09:25:51.727Z,60.86
2018-05-16T09:26:51.737Z,60.02
2018-05-16T09:27:51.590Z,59.92
2018-05-16T09:28:51.523Z,57.01
2018-05-16T09:29:51.458Z,54.38
2018-05-16T09:30:51.360Z,52.20
2018-05-16T09:31:51.290Z,50.38
2018-05-16T09:32:51.215Z,49.82
2018-05-16T09:35:33.151Z,51.50
2018-05-16T09:36:33.053Z,52.64
2018-05-16T09:37:32.990Z,52.80
2018-05-16T09:40:15.284Z,51.57
2018-05-16T09:41:15.073Z,51.21
2018-05-16T09:42:14.988Z,50.72
2018-05-16T09:44:57.131Z,52.51
2018-05-16T09:45:57.102Z,52.80
2018-05-16T09:46:56.987Z,53.26
2018-05-16T09:47:56.921Z,53.91
2018-05-16T09:48:56.848Z,54.95
2018-05-16T09:49:56.788Z,54.95
2018-05-16T09:50:56.727Z,55.63
2018-05-16T09:51:56.650Z,55.34
2018-05-16T09:52:56.559Z,56.83
2018-05-16T09:53:56.596Z,57.89
2018-05-16T09:54:56.660Z,57.54
2018-05-16T09:55:56.544Z,55.88
2018-05-16T09:56:56.513Z,54.28
2018-05-16T09:59:38.642Z,53.34
2018-05-16T10:00:38.621Z,52.06
2018-05-16T10:01:38.505Z,52.47
2018-05-16T10:04:20.636Z,51.37
2018-05-16T10:07:02.659Z,54.52
2018-05-16T10:08:02.614Z,55.30
2018-05-16T10:09:02.486Z,55.07
2018-05-16T10:11:44.667Z,57.15
2018-05-16T10:12:44.573Z,56.76
2018-05-16T10:13:44.734Z,57.54
2018-05-16T10:14:44.429Z,57.15
2018-05-16T10:15:44.360Z,57.34
2018-05-16T10:16:44.446Z,56.98
2018-05-16T10:17:44.223Z,56.60
2018-05-16T10:18:44.152Z,55.82
2018-05-16T10:19:44.080Z,56.57
2018-05-16T10:20:44.024Z,57.60
2018-05-16T10:21:43.923Z,57.51
2018-05-16T10:22:43.880Z,57.60
2018-05-16T10:23:43.805Z,57.41
2018-05-16T10:24:43.719Z,57.12
2018-05-16T10:25:43.632Z,57.31
2018-05-16T10:26:43.594Z,57.89
2018-05-16T10:27:43.488Z,57.12
2018-05-16T10:28:43.431Z,57.41
2018-05-16T10:29:43.358Z,57.60
2018-05-16T10:30:43.284Z,58.25
2018-05-16T10:31:43.234Z,59.02
2018-05-16T10:32:43.147Z,59.05
2018-05-16T10:33:43.054Z,57.99
2018-05-16T10:34:43.025Z,56.95
2018-05-16T10:35:42.917Z,55.43
2018-05-16T10:36:42.962Z,54.95
2018-05-16T10:37:42.796Z,53.81
2018-05-16T10:40:24.743Z,52.44
2018-05-16T10:41:24.643Z,53.22
2018-05-16T10:42:24.526Z,52.20
2018-05-16T10:43:24.438Z,51.14
2018-05-16T10:44:24.372Z,51.18
2018-05-16T10:45:24.310Z,52.39
2018-05-16T10:46:24.342Z,54.53
2018-05-16T10:47:24.177Z,56.40
2018-05-16T10:48:24.389Z,55.05
2018-05-16T10:49:24.039Z,54.85
2018-05-16T10:50:23.940Z,55.24
2018-05-16T10:51:23.864Z,55.73
2018-05-16T10:52:23.839Z,56.86
2018-05-16T10:53:23.720Z,57.15
2018-05-16T10:54:23.656Z,57.44
2018-05-16T10:55:23.600Z,57.60
2018-05-16T10:56:23.529Z,58.37
2018-05-16T10:58:18.251Z,59.25
2018-05-16T10:58:23.436Z,58.67
2018-05-16T10:59:23.308Z,58.28
2018-05-16T11:00:23.211Z,57.60
2018-05-16T11:03:05.184Z,57.34
2018-05-16T11:04:05.090Z,58.80
2018-05-16T11:05:05.011Z,59.18
2018-05-16T11:07:47.201Z,60.50
2018-05-16T11:08:47.127Z,60.60
2018-05-16T11:09:47.021Z,61.02
2018-05-16T11:10:46.954Z,59.89
2018-05-16T11:11:46.873Z,58.88
2018-05-16T11:12:46.822Z,56.59
2018-05-16T11:13:46.735Z,55.32
2018-05-16T11:16:28.686Z,56.07
2018-05-16T11:17:28.683Z,57.30
2018-05-16T11:18:28.528Z,57.50
2018-05-16T11:21:10.672Z,57.54
2018-05-16T11:22:10.596Z,58.40
2018-05-16T11:23:10.512Z,58.98
2018-05-16T11:24:10.536Z,58.70
2018-05-16T11:25:10.376Z,58.80
2018-05-16T11:26:10.416Z,59.15
2018-05-16T11:27:10.244Z,59.18
2018-05-16T11:30:18.685Z,60.89
2018-05-16T11:33:27.165Z,60.21
2018-05-16T11:34:34.814Z,59.83
2018-05-16T11:35:27.022Z,59.53
2018-05-16T11:36:26.966Z,60.50
2018-05-16T11:39:20.684Z,59.86
2018-05-16T11:42:29.194Z,58.34
2018-05-16T11:45:22.713Z,57.86
2018-05-16T11:48:16.184Z,57.40
2018-05-16T11:50:03.755Z,57.14
2018-05-16T11:50:23.811Z,55.42
2018-05-16T11:51:15.965Z,55.52
2018-05-16T11:52:15.901Z,53.89
2018-05-16T11:55:24.765Z,53.51
2018-05-16T11:56:32.616Z,52.44
2018-05-16T11:57:24.553Z,53.51
2018-05-16T11:58:24.467Z,53.49
2018-05-16T12:01:18.210Z,55.51
2018-05-16T12:04:11.680Z,55.79
2018-05-16T12:07:20.255Z,55.99
2018-05-16T12:10:13.691Z,56.80
2018-05-16T12:11:21.319Z,56.99
2018-05-16T12:12:13.535Z,57.67
2018-05-16T12:13:13.472Z,58.35
2018-05-16T12:16:07.354Z,58.64
2018-05-16T12:17:07.476Z,59.86
2018-05-16T12:18:07.316Z,60.25
2018-05-16T12:19:07.199Z,60.67
2018-05-16T12:20:06.894Z,60.18
2018-05-16T12:21:07.333Z,59.41
2018-05-16T12:22:06.774Z,59.51
2018-05-16T12:23:14.681Z,59.70
2018-05-16T12:24:06.637Z,59.51
2018-05-16T12:25:06.523Z,59.80
2018-05-16T12:27:48.921Z,61.47
2018-05-16T12:28:56.686Z,62.44
2018-05-16T12:29:48.536Z,62.05
2018-05-16T12:32:42.226Z,62.41
2018-05-16T12:35:35.700Z,62.18
2018-05-16T12:36:43.342Z,62.28
2018-05-16T12:37:35.552Z,62.96
2018-05-16T12:38:35.477Z,62.66
2018-05-16T12:41:29.192Z,62.48
2018-05-16T12:42:36.824Z,62.22
2018-05-16T12:43:29.804Z,62.22
2018-05-16T12:44:28.968Z,62.31
2018-05-16T12:45:45.772Z,62.51
2018-05-16T12:46:28.866Z,61.67
2018-05-16T12:47:28.775Z,60.44
2018-05-16T12:50:09.857Z,60.86
2018-05-16T12:50:10.368Z,59.09
2018-05-16T12:53:18.722Z,59.19
2018-05-16T12:54:26.627Z,59.80
2018-05-16T12:55:18.692Z,60.06
2018-05-16T12:56:18.482Z,60.35
2018-05-16T12:59:12.225Z,59.93
2018-05-16T13:00:28.143Z,61.19
2018-05-16T13:01:12.062Z,61.31
2018-05-16T13:02:11.973Z,60.83
2018-05-16T13:03:20.847Z,61.19
2018-05-16T13:04:11.842Z,61.41
2018-05-16T13:05:11.774Z,60.89
2018-05-16T13:08:20.239Z,60.13
2018-05-16T13:11:13.712Z,60.73
2018-05-16T13:12:21.645Z,59.99
2018-05-16T13:13:13.587Z,59.63
2018-05-16T13:14:13.479Z,58.47
2018-05-16T13:15:21.409Z,58.80
2018-05-16T13:16:13.355Z,58.31
2018-05-16T13:17:13.246Z,57.82
2018-05-16T13:18:21.284Z,57.92
2018-05-16T13:19:13.149Z,57.51
2018-05-16T13:20:13.039Z,57.79
2018-05-16T13:21:28.993Z,57.21
2018-05-16T13:22:12.882Z,58.35
2018-05-16T13:23:12.822Z,58.18
2018-05-16T13:24:20.506Z,58.28
2018-05-16T13:25:12.741Z,57.73
2018-05-16T13:26:12.824Z,57.05
2018-05-16T13:27:12.901Z,56.57
2018-05-16T13:28:12.724Z,56.47
2018-05-16T13:29:21.400Z,56.45
2018-05-16T13:30:12.306Z,57.70
2018-05-16T13:31:12.227Z,57.21
2018-05-16T13:33:54.327Z,56.80
2018-05-16T13:34:59.196Z,58.22
2018-05-16T13:35:54.058Z,58.83
2018-05-16T13:39:02.742Z,59.38
2018-05-16T13:40:11.408Z,59.77
2018-05-16T13:41:02.567Z,59.67
2018-05-16T13:43:56.259Z,59.99
2018-05-16T13:45:03.850Z,60.44
2018-05-16T13:45:56.096Z,61.28
2018-05-16T13:47:04.018Z,61.89
2018-05-16T13:47:55.922Z,61.38
2018-05-16T13:49:04.797Z,61.25
2018-05-16T13:49:55.766Z,62.41
2018-05-16T13:51:03.372Z,62.70
2018-05-16T13:51:55.646Z,62.44
2018-05-16T13:55:04.230Z,62.25
2018-05-16T13:56:11.889Z,62.54
2018-05-16T13:57:04.075Z,62.54
2018-05-16T14:00:12.761Z,62.54
2018-05-16T14:01:15.202Z,61.96
2018-05-16T14:02:12.573Z,62.57
2018-05-16T14:03:15.326Z,62.54
2018-05-16T14:04:12.438Z,61.96
2018-05-16T14:05:15.433Z,62.15
2018-05-16T14:06:12.296Z,62.25
2018-05-16T14:08:58.242Z,62.44
2018-05-16T14:11:51.729Z,63.85
2018-05-16T14:12:56.660Z,64.24
2018-05-16T14:13:51.600Z,64.08
2018-05-16T14:16:45.257Z,62.99
2018-05-16T14:19:53.756Z,64.53
2018-05-16T14:23:02.249Z,64.34
2018-05-16T14:26:10.758Z,65.66
2018-05-16T14:28:56.883Z,66.52
2018-05-16T14:29:59.028Z,65.98
2018-05-16T14:30:56.585Z,65.66
2018-05-16T14:31:59.065Z,66.82
2018-05-16T14:32:56.449Z,67.04
2018-05-16T14:33:59.185Z,66.27
2018-05-16T14:34:56.280Z,67.10
2018-05-16T14:37:42.252Z,68.42
2018-05-16T14:38:45.382Z,68.42
2018-05-16T14:39:42.094Z,69.09
2018-05-16T14:42:28.239Z,69.38
2018-05-16T14:45:14.529Z,68.55
2018-05-16T14:46:16.267Z,68.23
2018-05-16T14:47:14.087Z,68.45
2018-05-16T14:48:16.185Z,68.07
2018-05-16T14:49:13.932Z,67.40
2018-05-16T14:50:19.047Z,67.88
2018-05-16T14:51:13.787Z,68.35
2018-05-16T14:52:15.452Z,68.16
2018-05-16T14:53:13.668Z,68.55
2018-05-16T14:55:59.762Z,71.31
2018-05-16T14:58:45.737Z,71.50
2018-05-16T14:59:47.841Z,70.73
2018-05-16T15:00:45.588Z,70.92
2018-05-16T15:01:48.036Z,71.02
2018-05-16T15:02:45.436Z,71.22
2018-05-16T15:03:47.790Z,70.83
2018-05-16T15:04:45.284Z,70.19
2018-05-16T15:05:47.530Z,68.71
2018-05-16T15:06:45.125Z,68.90
2018-05-16T15:07:47.549Z,68.99
2018-05-16T15:08:45.010Z,69.19
2018-05-16T15:09:47.632Z,70.06
2018-05-16T15:10:44.840Z,68.80
2018-05-16T15:11:47.007Z,68.71
2018-05-16T15:12:44.685Z,68.42
2018-05-16T15:13:47.177Z,68.87
2018-05-16T15:14:44.697Z,70.02
2018-05-16T15:17:30.751Z,70.35
2018-05-16T15:18:32.841Z,69.96
2018-05-16T15:19:30.591Z,69.54
2018-05-16T15:20:32.768Z,69.77
2018-05-16T15:21:30.454Z,70.35
2018-05-16T15:45:50.566Z,68.97
2018-05-16T15:46:50.476Z,69.55
2018-05-16T15:47:50.346Z,69.84
2018-05-16T15:48:50.293Z,70.03
2018-05-16T15:49:50.135Z,69.64
2018-05-16T15:50:50.003Z,70.51
2018-05-16T15:51:50.094Z,69.64
2018-05-16T15:52:49.873Z,69.55
2018-05-16T15:53:49.855Z,69.55
2018-05-16T15:54:49.756Z,69.84
2018-05-16T15:55:49.702Z,70.51